createdAt,value
2023-06-16T00:04:38.791Z,0.0
2023-06-16T00:09:07.006Z,0.0
2023-06-16T00:14:13.417Z,0.0
2023-06-16T00:19:39.950Z,0.0
2023-06-16T00:24:26.348Z,0.0
2023-06-16T00:29:32.684Z,0.0
2023-06-16T00:34:39.057Z,0.0
2023-06-16T00:40:05.622Z,0.0
2023-06-16T00:44:52.034Z,0.0
2023-06-16T00:50:02.441Z,0.0
2023-06-16T00:55:04.813Z,0.0
2023-06-16T01:00:01.200Z,0.0
2023-06-16T01:06:22.649Z,0.0
2023-06-16T01:10:22.955Z,0.0
2023-06-16T01:15:20.501Z,0.0
2023-06-16T01:20:40.866Z,0.0
2023-06-16T01:25:43.450Z,0.0
2023-06-16T01:30:49.844Z,0.0
2023-06-16T01:36:20.253Z,0.0
2023-06-16T01:41:02.577Z,0.0
2023-06-16T01:46:33.115Z,0.0
2023-06-16T01:51:15.334Z,0.0
2023-06-16T01:56:41.892Z,0.0
2023-06-16T02:01:28.251Z,0.0
2023-06-16T02:06:34.755Z,0.0
2023-06-16T02:11:31.232Z,0.0
2023-06-16T02:16:46.637Z,0.0
2023-06-16T02:21:54.133Z,0.0
2023-06-16T02:27:00.478Z,0.0
2023-06-16T02:32:06.859Z,4.0
2023-06-16T02:37:13.266Z,8.0
2023-06-16T02:42:19.766Z,8.0
2023-06-16T02:47:26.179Z,16.0
2023-06-16T02:52:32.556Z,28.0
2023-06-16T02:58:35.023Z,48.0
2023-06-16T03:03:29.431Z,76.0
2023-06-16T03:07:51.686Z,116.0
2023-06-16T03:12:58.041Z,164.0
2023-06-16T03:18:04.475Z,228.0
2023-06-16T03:23:10.827Z,316.0
2023-06-16T03:28:17.202Z,428.0
2023-06-16T03:33:23.674Z,576.0
2023-06-16T03:38:34.132Z,732.0
2023-06-16T03:43:36.469Z,916.0
2023-06-16T03:54:53.403Z,1268.0
2023-06-16T03:59:59.802Z,1448.0
2023-06-16T04:05:11.139Z,1616.0
2023-06-16T04:10:17.927Z,1760.0
2023-06-16T04:15:20.117Z,1896.0
2023-06-16T04:20:30.573Z,2004.0
2023-06-16T04:25:32.372Z,2136.0
2023-06-16T04:30:39.744Z,2296.0
2023-06-16T04:36:56.284Z,2440.0
2023-06-16T04:45:18.573Z,2652.0
2023-06-16T04:50:27.496Z,2748.0
2023-06-16T04:56:44.012Z,2856.0
2023-06-16T05:00:40.273Z,2984.0
2023-06-16T05:05:46.653Z,3100.0
2023-06-16T05:10:53.013Z,3216.0
2023-06-16T05:16:19.504Z,3328.0
2023-06-16T05:21:25.834Z,3436.0
2023-06-16T05:26:36.203Z,3540.0
2023-06-16T05:31:57.665Z,3640.0
2023-06-16T05:36:23.939Z,3748.0
2023-06-16T05:41:21.453Z,3888.0
2023-06-16T05:46:27.826Z,4020.0
2023-06-16T05:51:44.333Z,4148.0
2023-06-16T05:56:50.675Z,4296.0
2023-06-16T06:01:57.066Z,4444.0
2023-06-16T06:07:05.103Z,4600.0
2023-06-16T06:12:01.398Z,4756.0
2023-06-16T06:17:17.820Z,4936.0
2023-06-16T06:22:24.261Z,5124.0
2023-06-16T06:27:29.608Z,5320.0
2023-06-16T06:32:37.035Z,5564.0
2023-06-16T06:37:33.373Z,5748.0
2023-06-16T06:42:49.867Z,5896.0
2023-06-16T06:47:56.389Z,7004.0
2023-06-16T06:53:02.895Z,7252.0
2023-06-16T06:58:09.248Z,7552.0
2023-06-16T07:03:05.699Z,7748.0
2023-06-16T07:08:22.015Z,8060.0
2023-06-16T07:13:28.356Z,8512.0
2023-06-16T07:18:34.748Z,8948.0
2023-06-16T07:23:41.180Z,9440.0
2023-06-16T07:28:47.503Z,9868.0
2023-06-16T07:33:43.868Z,10404.0
2023-06-16T07:39:00.281Z,10972.0
2023-06-16T07:44:06.643Z,11588.0
2023-06-16T07:49:03.041Z,12284.0
2023-06-16T07:54:19.610Z,12960.0
2023-06-16T07:59:26.019Z,13920.0
2023-06-16T08:04:22.790Z,14656.0
2023-06-16T08:09:28.935Z,15872.0
2023-06-16T08:14:45.289Z,16864.0
2023-06-16T08:19:41.644Z,17760.0
2023-06-16T08:24:58.077Z,19008.0
2023-06-16T08:30:04.406Z,22368.0
2023-06-16T08:35:00.789Z,22624.0
2023-06-16T08:40:17.718Z,22144.0
2023-06-16T08:45:23.772Z,22432.0
2023-06-16T08:50:29.297Z,23552.0
2023-06-16T08:55:37.012Z,24960.0
2023-06-16T09:00:43.177Z,25408.0
2023-06-16T09:05:49.551Z,27040.0
2023-06-16T09:10:55.953Z,28992.0
2023-06-16T09:16:02.422Z,28928.0
2023-06-16T09:21:08.771Z,29088.0
2023-06-16T09:26:15.322Z,29536.0
2023-06-16T09:31:41.786Z,31200.0
2023-06-16T09:36:28.121Z,33408.0
2023-06-16T09:41:34.675Z,36224.0
2023-06-16T09:46:40.905Z,37760.0
2023-06-16T09:51:37.258Z,36160.0
2023-06-16T09:56:43.692Z,16576.0
2023-06-16T10:02:00.110Z,29472.0
2023-06-16T10:06:56.448Z,44576.0
2023-06-16T10:12:37.182Z,42752.0
2023-06-16T10:17:39.546Z,42016.0
2023-06-16T10:22:25.828Z,14232.0
2023-06-16T10:27:22.220Z,12560.0
2023-06-16T10:33:06.338Z,12244.0
2023-06-16T10:37:48.686Z,12168.0
2023-06-16T10:42:55.036Z,12260.0
2023-06-16T10:48:21.649Z,12404.0
2023-06-16T10:53:31.032Z,12964.0
2023-06-16T10:58:14.472Z,13352.0
2023-06-16T11:03:20.916Z,13820.0
2023-06-16T11:08:27.241Z,13004.0
2023-06-16T11:13:53.669Z,12832.0
2023-06-16T11:19:00.144Z,13412.0
2023-06-16T11:24:29.636Z,14856.0
2023-06-16T11:29:12.850Z,42880.0
2023-06-16T11:34:38.479Z,44224.0
2023-06-16T11:44:19.862Z,45792.0
2023-06-16T11:49:28.799Z,46304.0
2023-06-16T11:54:32.655Z,46944.0
2023-06-16T11:59:40.097Z,46656.0
2023-06-16T12:04:45.556Z,45344.0
2023-06-16T12:09:52.866Z,47040.0
2023-06-16T12:14:59.304Z,43328.0
2023-06-16T12:20:25.747Z,22752.0
2023-06-16T12:25:32.177Z,45600.0
2023-06-16T12:30:19.603Z,44896.0
2023-06-16T12:35:25.184Z,34784.0
2023-06-16T12:40:45.587Z,42208.0
2023-06-16T12:45:37.961Z,30688.0
2023-06-16T12:50:44.341Z,12436.0
2023-06-16T12:55:50.707Z,37504.0
2023-06-16T13:00:57.123Z,31104.0
2023-06-16T13:06:03.670Z,11184.0
2023-06-16T13:11:00.152Z,26656.0
2023-06-16T13:16:16.585Z,33600.0
2023-06-16T13:21:43.024Z,33312.0
2023-06-16T13:26:29.381Z,28960.0
2023-06-16T13:31:35.826Z,16800.0
2023-06-16T13:36:42.154Z,14444.0
2023-06-16T13:41:48.795Z,29408.0
2023-06-16T13:46:55.177Z,13748.0
2023-06-16T13:52:01.606Z,10408.0
2023-06-16T13:57:08.107Z,9788.0
2023-06-16T14:02:04.543Z,9112.0
2023-06-16T14:07:20.868Z,8896.0
2023-06-16T14:12:27.256Z,13476.0
2023-06-16T14:17:33.710Z,13924.0
2023-06-16T14:22:40.018Z,11476.0
2023-06-16T14:27:46.401Z,12472.0
2023-06-16T14:32:52.888Z,10452.0
2023-06-16T14:37:59.143Z,9288.0
2023-06-16T14:43:05.555Z,9756.0
2023-06-16T14:48:12.124Z,9512.0
2023-06-16T14:53:32.449Z,8568.0
2023-06-16T14:58:24.904Z,9468.0
2023-06-16T15:03:31.439Z,8944.0
2023-06-16T15:08:27.689Z,8812.0
2023-06-16T15:13:44.136Z,8032.0
2023-06-16T15:18:50.515Z,7756.0
2023-06-16T15:23:56.010Z,7708.0
2023-06-16T15:29:03.289Z,7236.0
2023-06-16T15:33:59.789Z,7452.0
2023-06-16T15:39:16.260Z,7456.0
2023-06-16T15:44:12.624Z,7092.0
2023-06-16T15:49:29.035Z,5636.0
2023-06-16T15:54:35.394Z,6744.0
2023-06-16T15:59:41.814Z,6812.0
2023-06-16T16:04:51.795Z,6396.0
2023-06-16T16:09:57.133Z,6872.0
2023-06-16T16:15:05.778Z,6728.0
2023-06-16T16:20:11.162Z,4896.0
2023-06-16T16:25:17.535Z,6408.0
2023-06-16T16:30:28.095Z,6764.0
2023-06-16T16:35:30.410Z,6028.0
2023-06-16T16:40:36.748Z,5432.0
2023-06-16T16:45:43.147Z,5320.0
2023-06-16T16:50:49.638Z,5228.0
2023-06-16T16:56:16.053Z,4944.0
2023-06-16T17:01:02.484Z,4960.0
2023-06-16T17:07:06.433Z,4748.0
2023-06-16T17:11:19.330Z,4812.0
2023-06-16T17:16:21.674Z,4600.0
2023-06-16T17:21:52.050Z,4804.0
2023-06-16T17:26:24.418Z,4328.0
2023-06-16T17:32:57.414Z,4052.0
2023-06-16T17:38:02.317Z,3956.0
2023-06-16T17:43:52.948Z,4048.0
2023-06-16T17:48:15.206Z,4000.0
2023-06-16T17:53:21.582Z,4344.0
2023-06-16T17:58:27.976Z,3304.0
2023-06-16T18:03:48.401Z,3380.0
2023-06-16T18:08:40.726Z,3144.0
2023-06-16T18:13:47.118Z,2900.0
2023-06-16T18:18:43.474Z,2828.0
2023-06-16T18:23:59.960Z,3608.0
2023-06-16T18:29:06.308Z,4132.0
2023-06-16T18:34:12.674Z,3884.0
2023-06-16T18:40:03.194Z,3496.0
2023-06-16T18:44:25.480Z,3012.0
2023-06-16T18:49:21.926Z,1816.0
2023-06-16T18:54:38.407Z,1644.0
2023-06-16T18:59:48.846Z,1476.0
2023-06-16T19:04:51.177Z,1324.0
2023-06-16T19:09:47.545Z,1164.0
2023-06-16T19:15:28.051Z,1020.0
2023-06-16T19:20:00.400Z,888.0
2023-06-16T19:25:16.801Z,756.0
2023-06-16T19:30:23.211Z,628.0
2023-06-16T19:35:29.831Z,500.0
2023-06-16T19:40:36.354Z,392.0
2023-06-16T19:45:42.917Z,296.0
2023-06-16T19:51:13.388Z,212.0
2023-06-16T19:55:54.690Z,144.0
2023-06-16T20:01:22.697Z,96.0
2023-06-16T20:07:23.789Z,60.0
2023-06-16T20:13:07.275Z,32.0
2023-06-16T20:17:43.989Z,16.0
2023-06-16T20:24:05.333Z,8.0
2023-06-16T20:29:09.600Z,4.0
2023-06-16T20:34:57.971Z,4.0
2023-06-16T20:41:04.187Z,0.0
2023-06-16T20:44:40.978Z,0.0
2023-06-16T20:55:20.762Z,0.0
2023-06-16T21:00:05.029Z,0.0
2023-06-16T21:05:10.489Z,0.0
2023-06-16T21:10:18.207Z,0.0
2023-06-16T21:15:24.226Z,0.0
2023-06-16T21:20:29.716Z,0.0
2023-06-16T21:25:37.173Z,0.0
2023-06-16T21:31:07.747Z,0.0
2023-06-16T21:36:31.268Z,0.0
2023-06-16T21:40:56.158Z,0.0
2023-06-16T21:46:27.637Z,0.0
2023-06-16T21:51:34.016Z,0.0
2023-06-16T21:56:16.404Z,0.0
2023-06-16T22:01:22.767Z,0.0
2023-06-16T22:06:29.177Z,0.0
2023-06-16T22:11:35.561Z,0.0
2023-06-16T22:16:41.963Z,0.0
2023-06-16T22:21:48.462Z,0.0
2023-06-16T22:27:11.545Z,0.0
2023-06-16T22:32:01.215Z,0.0
2023-06-16T22:37:07.660Z,0.0
2023-06-16T22:42:14.025Z,0.0
2023-06-16T22:47:40.478Z,0.0
2023-06-16T22:52:26.952Z,0.0
2023-06-16T22:58:36.561Z,0.0
2023-06-16T23:02:39.041Z,0.0
2023-06-16T23:07:46.193Z,0.0
2023-06-16T23:12:52.681Z,0.0
2023-06-16T23:18:38.108Z,0.0
2023-06-16T23:23:04.529Z,0.0
2023-06-16T23:28:11.890Z,0.0
2023-06-16T23:33:38.324Z,0.0
2023-06-16T23:38:24.694Z,0.0
2023-06-16T23:43:51.102Z,0.0
2023-06-16T23:48:37.418Z,0.0
2023-06-16T23:53:43.911Z,0.0
2023-06-16T23:58:50.328Z,0.0
